Time;durP1;ratioP1;P1;durP2;ratioP2;P2;SDS_P1;SDS_P2;PMS_P1;PMS_P2;Temp;Humidity;BMP_temperature;BMP_pressure;BME280_temperature;BME280_humidity;BME280_pressure;Samples;Min_cycle;Max_cycle;Signal;HPM_P1;HPM_P2
2023/09/13 00:00:48;;;;;;;;;;;;;;;-146.25;100.00;52197.88;2088836;28;38162;-69
2023/09/13 00:01:53;;;;;;;;;;;;;;;-146.25;100.00;52230.31;2089703;28;20043;-70
2023/09/13 00:02:58;;;;;;;;;;;;;;;-146.25;100.00;52183.69;2087572;28;37750;-69
2023/09/13 00:03:59;;;;;;;;;;;;;;;-146.25;100.00;52195.84;2088623;28;30491;-69
2023/09/13 00:05:01;;;;;;;;;;;;;;;-146.25;100.00;52189.78;2088075;28;38188;-69
2023/09/13 00:06:03;;;;;;;;;;;;;;;-146.25;100.00;52203.97;2089864;28;20845;-68
2023/09/13 00:07:05;;;;;;;;;;;;;;;-146.25;100.00;52189.78;2088692;28;37998;-69
2023/09/13 00:08:06;;;;;;;;;;;;;;;-146.25;100.00;52210.03;2089275;28;33217;-69
2023/09/13 00:09:08;;;;;;;;;;;;;;;-146.25;100.00;52177.59;2088693;28;32071;-69
2023/09/13 00:10:10;;;;;;;;;;;;;;;-146.25;100.00;52185.72;2088688;28;37408;-69
2023/09/13 00:11:11;;;;;;;;;;;;;;;-146.25;100.00;52206.00;2089441;28;19929;-67
2023/09/13 00:12:13;;;;;;;;;;;;;;;-146.25;100.00;52179.63;2089225;28;36880;-69
2023/09/13 00:13:14;;;;;;;;;;;;;;;-146.25;100.00;52165.44;2088705;28;35292;-70
2023/09/13 00:14:16;;;;;;;;;;;;;;;-146.25;100.00;52171.53;2089197;28;36120;-69
2023/09/13 00:15:18;;;;;;;;;;;;;;;-146.25;100.00;52173.56;2088439;28;36043;-69
2023/09/13 00:16:19;;;;;;;;;;;;;;;-146.25;100.00;52183.69;2088783;28;36659;-69
2023/09/13 00:17:24;;;;;;;;;;;;;;;-146.25;100.00;52201.94;2088969;28;33364;-69
2023/09/13 00:18:25;;;;;;;;;;;;;;;-146.25;100.00;52159.34;2088629;28;37967;-69
2023/09/13 00:19:27;;;;;;;;;;;;;;;-146.25;100.00;52189.78;2089675;28;19936;-69
2023/09/13 00:20:29;;;;;;;;;;;;;;;-146.25;100.00;52187.75;2088501;28;38402;-69
2023/09/13 00:21:33;;;;;;;;;;;;;;;-146.25;100.00;52199.91;2088730;28;36098;-69
2023/09/13 00:22:34;;;;;;;;;;;;;;;-146.25;100.00;52181.66;2089080;28;29989;-68
2023/09/13 00:23:36;;;;;;;;;;;;;;;-146.25;100.00;52167.47;2088747;28;34370;-69
2023/09/13 00:24:38;;;;;;;;;;;;;;;-146.25;100.00;52157.34;2089155;28;37817;-69
2023/09/13 00:25:39;;;;;;;;;;;;;;;-146.25;100.00;52177.59;2088502;28;34721;-69
2023/09/13 00:26:41;;;;;;;;;;;;;;;-146.25;100.00;52193.81;2088892;28;38684;-69
2023/09/13 00:27:43;;;;;;;;;;;;;;;-146.25;100.00;52222.22;2089262;28;19976;-68
2023/09/13 00:28:46;;;;;;;;;;;;;;;-146.25;100.00;52222.22;2089480;28;20857;-68
2023/09/13 00:29:50;;;;;;;;;;;;;;;-146.25;100.00;52224.25;2088531;28;31835;-68
2023/09/13 00:30:54;;;;;;;;;;;;;;;-146.25;100.00;52155.31;2088157;28;27878;-69
2023/09/13 00:31:56;;;;;;;;;;;;;;;-146.25;100.00;52226.25;2087759;28;35040;-69
2023/09/13 00:32:57;;;;;;;;;;;;;;;-146.25;100.00;52220.19;2089081;28;19929;-69
2023/09/13 00:33:59;;;;;;;;;;;;;;;-146.25;100.00;52201.94;2089229;28;27662;-68
2023/09/13 00:35:01;;;;;;;;;;;;;;;-146.25;100.00;52177.59;2088297;28;30849;-69
2023/09/13 00:36:02;;;;;;;;;;;;;;;-146.25;100.00;52175.56;2088367;28;19921;-68
2023/09/13 00:37:04;;;;;;;;;;;;;;;-146.25;100.00;52222.22;2088278;28;35029;-68
2023/09/13 00:38:08;;;;;;;;;;;;;;;-146.25;100.00;52206.00;2088566;28;19925;-68
2023/09/13 00:39:10;;;;;;;;;;;;;;;-146.25;100.00;52222.22;2088803;28;23067;-68
2023/09/13 00:40:11;;;;;;;;;;;;;;;-146.25;100.00;52161.38;2096519;28;29645;-68
2023/09/13 00:41:15;;;;;;;;;;;;;;;-146.25;100.00;52214.09;2089385;28;26511;-67
2023/09/13 00:42:18;;;;;;;;;;;;;;;-146.25;100.00;52173.56;2089461;28;19994;-68
2023/09/13 00:43:20;;;;;;;;;;;;;;;-146.25;100.00;52185.72;2089330;28;30701;-67
2023/09/13 00:44:21;;;;;;;;;;;;;;;-146.25;100.00;52206.00;2088705;28;27474;-68
2023/09/13 00:45:23;;;;;;;;;;;;;;;-146.25;100.00;52220.19;2088083;28;28990;-68
2023/09/13 00:46:26;;;;;;;;;;;;;;;-146.25;100.00;52171.53;2088563;28;19992;-68
2023/09/13 00:47:27;;;;;;;;;;;;;;;-146.25;100.00;52159.34;2089143;28;28375;-67
2023/09/13 00:48:30;;;;;;;;;;;;;;;-146.25;100.00;52216.13;2088738;28;27657;-68
2023/09/13 00:49:34;;;;;;;;;;;;;;;-146.25;100.00;52193.81;2084330;28;26409;-67
2023/09/13 00:50:37;;;;;;;;;;;;;;;-146.25;100.00;52193.81;2088697;28;31035;-67
2023/09/13 00:51:56;;;;;;;;;;;;;;;-146.25;100.00;52224.25;2088957;28;29276;-68
2023/09/13 00:52:58;;;;;;;;;;;;;;;-146.25;100.00;52234.38;2088077;28;31209;-68
2023/09/13 00:54:02;;;;;;;;;;;;;;;-146.25;100.00;52185.72;2088653;28;19983;-68
2023/09/13 00:55:06;;;;;;;;;;;;;;;-146.25;100.00;52177.59;2089109;28;20694;-67
2023/09/13 00:56:08;;;;;;;;;;;;;;;-146.25;100.00;52197.88;2089301;28;19921;-68
2023/09/13 00:57:11;;;;;;;;;;;;;;;-146.25;100.00;52218.16;2088884;28;25815;-68
2023/09/13 00:58:13;;;;;;;;;;;;;;;-146.25;100.00;52208.03;2088420;28;20801;-68
2023/09/13 00:59:15;;;;;;;;;;;;;;;-146.25;100.00;52203.97;2087551;28;36409;-68
2023/09/13 01:00:18;;;;;;;;;;;;;;;-146.25;100.00;52169.50;2088870;28;19995;-68
2023/09/13 01:01:23;;;;;;;;;;;;;;;-146.25;100.00;52177.59;2088605;28;33503;-68
2023/09/13 01:02:25;;;;;;;;;;;;;;;-146.25;100.00;52185.72;2089063;28;28425;-67
2023/09/13 01:03:27;;;;;;;;;;;;;;;-146.25;100.00;52201.94;2088319;28;20805;-67
2023/09/13 01:04:32;;;;;;;;;;;;;;;-146.25;100.00;52218.16;2087516;28;23330;-67
2023/09/13 01:05:36;;;;;;;;;;;;;;;-146.25;100.00;52206.00;2087773;28;32035;-67
2023/09/13 01:06:38;;;;;;;;;;;;;;;-146.25;100.00;52210.03;2088438;28;20713;-68
2023/09/13 01:07:41;;;;;;;;;;;;;;;-146.25;100.00;52193.81;2088335;28;28821;-67
2023/09/13 01:08:45;;;;;;;;;;;;;;;-146.25;100.00;52218.16;2087902;28;31331;-67
2023/09/13 01:09:47;;;;;;;;;;;;;;;-146.25;100.00;52181.66;2088405;28;20060;-68
2023/09/13 01:10:54;;;;;;;;;;;;;;;-146.25;100.00;52228.28;2089369;28;20718;-68
2023/09/13 01:11:56;;;;;;;;;;;;;;;-146.25;100.00;52185.72;2089242;28;20019;-67
2023/09/13 01:12:58;;;;;;;;;;;;;;;-146.25;100.00;52193.81;2088691;28;33211;-67
2023/09/13 01:14:01;;;;;;;;;;;;;;;-146.25;100.00;52187.75;2089106;28;19933;-67
2023/09/13 01:15:08;;;;;;;;;;;;;;;-146.25;100.00;52208.03;2088487;28;31006;-66
2023/09/13 01:16:32;;;;;;;;;;;;;;;-146.25;100.00;52203.97;2088291;28;25927;-68
2023/09/13 01:17:46;;;;;;;;;;;;;;;-146.25;100.00;52206.00;2088986;28;20821;-67
2023/09/13 01:18:59;;;;;;;;;;;;;;;-146.25;100.00;52203.97;2089124;28;24539;-67
2023/09/13 01:20:15;;;;;;;;;;;;;;;-146.25;100.00;52203.97;2080422;28;19932;-67
2023/09/13 01:21:45;;;;;;;;;;;;;;;-146.25;100.00;52175.56;2080360;28;28122;-67
2023/09/13 01:23:21;;;;;;;;;;;;;;;-146.25;100.00;52143.13;2080971;28;23168;-67
2023/09/13 01:24:35;;;;;;;;;;;;;;;-146.25;100.00;52224.25;2080393;28;25608;-67
2023/09/13 01:25:41;;;;;;;;;;;;;;;-146.25;100.00;52201.94;2088468;28;19929;-67
2023/09/13 01:27:00;;;;;;;;;;;;;;;-146.25;100.00;52206.00;2088001;28;20086;-67
2023/09/13 01:28:39;;;;;;;;;;;;;;;-146.25;100.00;52181.66;2081108;28;19926;-67
2023/09/13 01:29:44;;;;;;;;;;;;;;;-146.25;100.00;52201.94;2080552;28;34381;-67
2023/09/13 01:30:46;;;;;;;;;;;;;;;-146.25;100.00;52203.97;2087445;28;33164;-67
2023/09/13 01:31:48;;;;;;;;;;;;;;;-146.25;100.00;52197.88;2087788;28;28807;-67
2023/09/13 01:32:51;;;;;;;;;;;;;;;-146.25;100.00;52189.78;2087697;28;29936;-67
2023/09/13 01:33:53;;;;;;;;;;;;;;;-146.25;100.00;52185.72;2087551;28;32161;-67
2023/09/13 01:34:55;;;;;;;;;;;;;;;-146.25;100.00;52234.38;2080436;28;20690;-67
2023/09/13 01:35:57;;;;;;;;;;;;;;;-146.25;100.00;52212.06;2080428;28;31879;-67
2023/09/13 01:36:59;;;;;;;;;;;;;;;-146.25;100.00;52201.94;2080348;28;33535;-67
2023/09/13 01:38:01;;;;;;;;;;;;;;;-146.25;100.00;52167.47;2088323;28;20848;-67
2023/09/13 01:39:04;;;;;;;;;;;;;;;-146.25;100.00;52193.81;2088389;28;31511;-67
2023/09/13 01:40:08;;;;;;;;;;;;;;;-146.25;100.00;52210.03;2079833;28;26883;-67
2023/09/13 01:41:20;;;;;;;;;;;;;;;-146.25;100.00;52199.91;2079153;28;31345;-67
2023/09/13 01:42:24;;;;;;;;;;;;;;;-146.25;100.00;52201.94;2079373;28;32493;-67
2023/09/13 01:43:26;;;;;;;;;;;;;;;-146.25;100.00;52232.34;2080154;28;20754;-67
2023/09/13 01:44:29;;;;;;;;;;;;;;;-146.25;100.00;52222.22;2080742;28;27198;-67
2023/09/13 01:45:35;;;;;;;;;;;;;;;-146.25;100.00;52199.91;2079199;28;33632;-67
2023/09/13 01:46:44;;;;;;;;;;;;;;;-146.25;100.00;52201.94;2080282;28;22315;-67
2023/09/13 01:47:46;;;;;;;;;;;;;;;-146.25;100.00;52175.56;2080074;28;32581;-67
2023/09/13 01:48:49;;;;;;;;;;;;;;;-146.25;100.00;52206.00;2080948;28;19936;-67
2023/09/13 01:49:52;;;;;;;;;;;;;;;-146.25;100.00;52208.03;2087486;28;19943;-67
2023/09/13 01:50:55;;;;;;;;;;;;;;;-146.25;100.00;52208.03;2088242;28;36296;-67
2023/09/13 01:51:56;;;;;;;;;;;;;;;-146.25;100.00;52201.94;2088779;28;22653;-66
2023/09/13 01:53:01;;;;;;;;;;;;;;;-146.25;100.00;52199.91;2088836;28;26001;-67
2023/09/13 01:54:03;;;;;;;;;;;;;;;-146.25;100.00;52226.25;2088574;28;26872;-67
2023/09/13 01:55:06;;;;;;;;;;;;;;;-146.25;100.00;52218.16;2087628;28;31330;-67
2023/09/13 01:56:08;;;;;;;;;;;;;;;-146.25;100.00;52181.66;2079945;28;22448;-66
2023/09/13 01:57:12;;;;;;;;;;;;;;;-146.25;100.00;52214.09;2088225;28;19933;-67
2023/09/13 01:58:13;;;;;;;;;;;;;;;-146.25;100.00;52197.88;2088198;28;19921;-67
2023/09/13 01:59:15;;;;;;;;;;;;;;;-146.25;100.00;52214.09;2079893;28;20009;-68
2023/09/13 02:00:17;;;;;;;;;;;;;;;-146.25;100.00;52206.00;2087028;28;35623;-68
2023/09/13 02:01:21;;;;;;;;;;;;;;;-146.25;100.00;52193.81;2088812;28;19929;-68
2023/09/13 02:02:22;;;;;;;;;;;;;;;-146.25;100.00;52161.38;2088901;28;19929;-68
2023/09/13 02:03:24;;;;;;;;;;;;;;;-146.25;100.00;52214.09;2088866;28;19928;-69
2023/09/13 02:04:31;;;;;;;;;;;;;;;-146.25;100.00;52185.72;2087374;28;31327;-68
2023/09/13 02:05:33;;;;;;;;;;;;;;;-146.25;100.00;52220.19;2087761;28;33248;-69
2023/09/13 02:06:35;;;;;;;;;;;;;;;-146.25;100.00;52201.94;2087866;28;19929;-69
2023/09/13 02:07:39;;;;;;;;;;;;;;;-146.25;100.00;52236.41;2088591;28;25718;-70
2023/09/13 02:08:42;;;;;;;;;;;;;;;-146.25;100.00;52214.09;2088057;28;21083;-70
2023/09/13 02:09:44;;;;;;;;;;;;;;;-146.25;100.00;52232.34;2088349;28;20075;-70
2023/09/13 02:10:51;;;;;;;;;;;;;;;-146.25;100.00;52236.41;2088591;28;31810;-70
2023/09/13 02:11:53;;;;;;;;;;;;;;;-146.25;100.00;52218.16;2088812;28;19972;-70
2023/09/13 02:12:55;;;;;;;;;;;;;;;-146.25;100.00;52214.09;2088652;28;19929;-71
2023/09/13 02:13:56;;;;;;;;;;;;;;;-146.25;100.00;52189.78;2088611;28;27628;-71
2023/09/13 02:14:58;;;;;;;;;;;;;;;-146.25;100.00;52189.78;2087605;28;20253;-70
2023/09/13 02:16:00;;;;;;;;;;;;;;;-146.25;100.00;52171.53;2087106;28;20034;-71
2023/09/13 02:17:02;;;;;;;;;;;;;;;-146.25;100.00;52226.25;2087473;28;34077;-70
2023/09/13 02:18:04;;;;;;;;;;;;;;;-146.25;100.00;52218.16;2088752;28;20720;-71
2023/09/13 02:19:06;;;;;;;;;;;;;;;-146.25;100.00;52218.16;2087024;28;36151;-71
2023/09/13 02:20:11;;;;;;;;;;;;;;;-146.25;100.00;52210.03;2087452;28;28504;-71
2023/09/13 02:21:12;;;;;;;;;;;;;;;-146.25;100.00;52201.94;2087891;28;24150;-70
2023/09/13 02:22:14;;;;;;;;;;;;;;;-146.25;100.00;52201.94;2087364;28;26230;-71
2023/09/13 02:23:16;;;;;;;;;;;;;;;-146.25;100.00;52199.91;2087530;28;31163;-71
2023/09/13 02:24:17;;;;;;;;;;;;;;;-146.25;100.00;52189.78;2088338;28;33782;-71
2023/09/13 02:25:19;;;;;;;;;;;;;;;-146.25;100.00;52185.72;2088200;28;29538;-71
2023/09/13 02:26:22;;;;;;;;;;;;;;;-146.25;100.00;52214.09;2087882;28;25300;-71
2023/09/13 02:27:25;;;;;;;;;;;;;;;-146.25;100.00;52222.22;2087996;28;19925;-72
2023/09/13 02:28:26;;;;;;;;;;;;;;;-146.25;100.00;52218.16;2088038;28;37340;-71
2023/09/13 02:29:28;;;;;;;;;;;;;;;-146.25;100.00;52187.75;2088462;28;20930;-72
2023/09/13 02:30:30;;;;;;;;;;;;;;;-146.25;100.00;52206.00;2087721;28;19925;-71
2023/09/13 02:31:32;;;;;;;;;;;;;;;-146.25;100.00;52201.94;2087640;28;33885;-71
2023/09/13 02:32:34;;;;;;;;;;;;;;;-146.25;100.00;52238.44;2088130;28;19922;-71
2023/09/13 02:33:36;;;;;;;;;;;;;;;-146.25;100.00;52210.03;2087651;28;32838;-72
2023/09/13 02:34:38;;;;;;;;;;;;;;;-146.25;100.00;52185.72;2087844;28;19929;-72
2023/09/13 02:35:39;;;;;;;;;;;;;;;-146.25;100.00;52179.63;2087368;28;26838;-72
2023/09/13 02:36:41;;;;;;;;;;;;;;;-146.25;100.00;52224.25;2087548;28;29847;-71
2023/09/13 02:37:43;;;;;;;;;;;;;;;-146.25;100.00;52216.13;2087905;28;22315;-72
2023/09/13 02:38:52;;;;;;;;;;;;;;;-146.25;100.00;52214.09;2088002;28;19983;-71
2023/09/13 02:39:54;;;;;;;;;;;;;;;-146.25;100.00;52195.84;2087619;28;23264;-71
2023/09/13 02:40:56;;;;;;;;;;;;;;;-146.25;100.00;52210.03;2087843;28;19936;-71
2023/09/13 02:41:57;;;;;;;;;;;;;;;-146.25;100.00;52171.53;2079579;28;24306;-71
2023/09/13 02:42:59;;;;;;;;;;;;;;;-146.25;100.00;52242.50;2079446;28;31057;-70
2023/09/13 02:44:00;;;;;;;;;;;;;;;-146.25;100.00;52177.59;2086979;28;28617;-70
2023/09/13 02:45:04;;;;;;;;;;;;;;;-146.25;100.00;52201.94;2087944;28;19982;-70
2023/09/13 02:46:06;;;;;;;;;;;;;;;-146.25;100.00;52193.81;2096004;28;20046;-69
2023/09/13 02:47:07;;;;;;;;;;;;;;;-146.25;100.00;52197.88;2087551;28;28430;-70
2023/09/13 02:48:11;;;;;;;;;;;;;;;-146.25;100.00;52212.06;2087729;28;28737;-70
2023/09/13 02:49:13;;;;;;;;;;;;;;;-146.25;100.00;52234.38;2088696;28;19932;-70
2023/09/13 02:50:15;;;;;;;;;;;;;;;-146.25;100.00;52214.09;2087926;28;24928;-71
2023/09/13 02:51:17;;;;;;;;;;;;;;;-146.25;100.00;52218.16;2089107;28;20003;-71
2023/09/13 02:52:27;;;;;;;;;;;;;;;-146.25;100.00;52226.25;2087916;28;20052;-71
2023/09/13 02:53:30;;;;;;;;;;;;;;;-146.25;100.00;52189.78;2088043;28;20296;-70
2023/09/13 02:54:34;;;;;;;;;;;;;;;-146.25;100.00;52187.75;2090058;28;19980;-70
2023/09/13 02:55:36;;;;;;;;;;;;;;;-146.25;100.00;52218.16;2088882;28;23250;-71
2023/09/13 02:56:39;;;;;;;;;;;;;;;-146.25;100.00;52210.03;2089464;28;20040;-70
2023/09/13 02:57:41;;;;;;;;;;;;;;;-146.25;100.00;52210.03;2088946;28;20675;-70
2023/09/13 02:58:45;;;;;;;;;;;;;;;-146.25;100.00;52216.13;2089539;28;25556;-70
2023/09/13 02:59:47;;;;;;;;;;;;;;;-146.25;100.00;52222.22;2089109;28;23327;-70
2023/09/13 03:00:49;;;;;;;;;;;;;;;-146.25;100.00;52262.75;2089226;28;20832;-70
2023/09/13 03:01:53;;;;;;;;;;;;;;;-146.25;100.00;52242.50;2088886;28;19971;-69
2023/09/13 03:02:57;;;;;;;;;;;;;;;-146.25;100.00;52250.59;2081155;28;19930;-69
2023/09/13 03:03:59;;;;;;;;;;;;;;;-146.25;100.00;52210.03;2088935;28;21079;-69
2023/09/13 03:05:05;;;;;;;;;;;;;;;-146.25;100.00;52203.97;2089110;28;19947;-69
2023/09/13 03:06:12;;;;;;;;;;;;;;;-146.25;100.00;52226.25;2089328;28;19929;-69
2023/09/13 03:07:15;;;;;;;;;;;;;;;-146.25;100.00;52220.19;2082052;28;20312;-69
2023/09/13 03:08:17;;;;;;;;;;;;;;;-146.25;100.00;52214.09;2089429;28;19925;-69
2023/09/13 03:09:19;;;;;;;;;;;;;;;-146.25;100.00;52218.16;2089917;28;20086;-69
2023/09/13 03:10:20;;;;;;;;;;;;;;;-146.25;100.00;52214.09;2089068;28;20825;-68
2023/09/13 03:11:22;;;;;;;;;;;;;;;-146.25;100.00;52218.16;2089246;28;19932;-68
2023/09/13 03:12:23;;;;;;;;;;;;;;;-146.25;100.00;52181.66;2089070;28;20022;-68
2023/09/13 03:13:25;;;;;;;;;;;;;;;-146.25;100.00;52201.94;2080679;28;19929;-68
2023/09/13 03:14:29;;;;;;;;;;;;;;;-146.25;100.00;52224.25;2089711;28;19925;-68
2023/09/13 03:15:33;;;;;;;;;;;;;;;-146.25;100.00;52193.81;2088917;28;19980;-67
2023/09/13 03:16:34;;;;;;;;;;;;;;;-146.25;100.00;52214.09;2088854;28;20063;-68
2023/09/13 03:17:37;;;;;;;;;;;;;;;-146.25;100.00;52250.59;2089492;28;19932;-67
2023/09/13 03:18:39;;;;;;;;;;;;;;;-146.25;100.00;52218.16;2089076;28;19932;-68
2023/09/13 03:19:41;;;;;;;;;;;;;;;-146.25;100.00;52199.91;2081021;28;20818;-68
2023/09/13 03:20:44;;;;;;;;;;;;;;;-146.25;100.00;52218.16;2089314;28;19984;-68
2023/09/13 03:21:45;;;;;;;;;;;;;;;-146.25;100.00;52201.94;2088920;28;23364;-67
2023/09/13 03:22:47;;;;;;;;;;;;;;;-146.25;100.00;52226.25;2090149;28;20820;-67
2023/09/13 03:23:51;;;;;;;;;;;;;;;-146.25;100.00;52246.53;2088954;28;19968;-67
2023/09/13 03:24:54;;;;;;;;;;;;;;;-146.25;100.00;52193.81;2089073;28;20012;-67
2023/09/13 03:25:56;;;;;;;;;;;;;;;-146.25;100.00;52214.09;2088819;28;19940;-67
2023/09/13 03:26:57;;;;;;;;;;;;;;;-146.25;100.00;52224.25;2088722;28;28299;-67
2023/09/13 03:27:59;;;;;;;;;;;;;;;-146.25;100.00;52206.00;2089428;28;19929;-67
2023/09/13 03:29:02;;;;;;;;;;;;;;;-146.25;100.00;52187.75;2089185;28;20793;-66
2023/09/13 03:30:06;;;;;;;;;;;;;;;-146.25;100.00;52216.13;2089036;28;19925;-67
2023/09/13 03:31:13;;;;;;;;;;;;;;;-146.25;100.00;52210.03;2090023;28;21019;-67
2023/09/13 03:32:16;;;;;;;;;;;;;;;-146.25;100.00;52222.22;2089120;28;19994;-67
2023/09/13 03:33:18;;;;;;;;;;;;;;;-146.25;100.00;52246.53;2089382;28;20008;-67
2023/09/13 03:34:20;;;;;;;;;;;;;;;-146.25;100.00;52230.31;2097486;28;20813;-67
2023/09/13 03:35:22;;;;;;;;;;;;;;;-146.25;100.00;52214.09;2088652;28;20388;-66
2023/09/13 03:36:27;;;;;;;;;;;;;;;-146.25;100.00;52250.59;2089365;28;19921;-66
2023/09/13 03:37:31;;;;;;;;;;;;;;;-146.25;100.00;52218.16;2088850;28;19930;-67
2023/09/13 03:38:38;;;;;;;;;;;;;;;-146.25;100.00;52183.69;2088864;28;27223;-66
2023/09/13 03:39:40;;;;;;;;;;;;;;;-146.25;100.00;52199.91;2088979;28;19917;-66
2023/09/13 03:40:41;;;;;;;;;;;;;;;-146.25;100.00;52242.50;2080691;28;19925;-67
2023/09/13 03:41:43;;;;;;;;;;;;;;;-146.25;100.00;52173.56;2080660;28;21057;-67
2023/09/13 03:42:45;;;;;;;;;;;;;;;-146.25;100.00;52181.66;2080654;28;19936;-66
2023/09/13 03:43:48;;;;;;;;;;;;;;;-146.25;100.00;52210.03;2080734;28;20064;-67
2023/09/13 03:44:49;;;;;;;;;;;;;;;-146.25;100.00;52214.09;2080983;28;19914;-66
2023/09/13 03:45:51;;;;;;;;;;;;;;;-146.25;100.00;52226.25;2080407;28;29490;-67
2023/09/13 03:46:53;;;;;;;;;;;;;;;-146.25;100.00;52240.47;2080849;28;20882;-66
2023/09/13 03:47:55;;;;;;;;;;;;;;;-146.25;100.00;52232.34;2080674;28;20048;-66
2023/09/13 03:48:56;;;;;;;;;;;;;;;-146.25;100.00;52214.09;2080831;28;19976;-66
2023/09/13 03:49:58;;;;;;;;;;;;;;;-146.25;100.00;52226.25;2088510;28;25634;-66
2023/09/13 03:51:00;;;;;;;;;;;;;;;-146.25;100.00;52240.47;2088708;28;20142;-65
2023/09/13 03:52:02;;;;;;;;;;;;;;;-146.25;100.00;52208.03;2080724;28;19929;-67
2023/09/13 03:53:04;;;;;;;;;;;;;;;-146.25;100.00;52206.00;2088998;28;20883;-68
2023/09/13 03:54:06;;;;;;;;;;;;;;;-146.25;100.00;52201.94;2089003;28;19932;-71
2023/09/13 03:55:10;;;;;;;;;;;;;;;-146.25;100.00;52242.50;2088797;28;19913;-72
2023/09/13 03:56:11;;;;;;;;;;;;;;;-146.25;100.00;52208.03;2088483;28;20798;-72
2023/09/13 03:57:14;;;;;;;;;;;;;;;-146.25;100.00;52214.09;2088771;28;20082;-72
2023/09/13 03:58:16;;;;;;;;;;;;;;;-146.25;100.00;52224.25;2088992;28;24270;-72
2023/09/13 03:59:19;;;;;;;;;;;;;;;-146.25;100.00;52268.84;2088905;28;19925;-72
2023/09/13 04:00:21;;;;;;;;;;;;;;;-146.25;100.00;52226.25;2088640;28;20860;-73
2023/09/13 04:01:24;;;;;;;;;;;;;;;-146.25;100.00;52254.66;2080239;28;27859;-73
2023/09/13 04:02:25;;;;;;;;;;;;;;;-146.25;100.00;52210.03;2080950;28;27162;-72
2023/09/13 04:03:32;;;;;;;;;;;;;;;-146.25;100.00;52246.53;2088472;28;19933;-73
2023/09/13 04:04:34;;;;;;;;;;;;;;;-146.25;100.00;52250.59;2080686;28;20798;-73
2023/09/13 04:05:35;;;;;;;;;;;;;;;-146.25;100.00;52266.81;2088582;28;27341;-73
2023/09/13 04:06:39;;;;;;;;;;;;;;;-146.25;100.00;52252.63;2088258;28;35763;-73
2023/09/13 04:07:40;;;;;;;;;;;;;;;-146.25;100.00;52230.31;2088577;28;31404;-73
2023/09/13 04:08:42;;;;;;;;;;;;;;;-146.25;100.00;52234.38;2088849;28;20022;-72
2023/09/13 04:09:44;;;;;;;;;;;;;;;-146.25;100.00;52234.38;2088525;28;28845;-72
2023/09/13 04:10:46;;;;;;;;;;;;;;;-146.25;100.00;52214.09;2089221;28;19925;-72
2023/09/13 04:11:48;;;;;;;;;;;;;;;-146.25;100.00;52242.50;2089126;28;29915;-72
2023/09/13 04:12:50;;;;;;;;;;;;;;;-146.25;100.00;52228.28;2088463;28;22538;-72
2023/09/13 04:13:51;;;;;;;;;;;;;;;-146.25;100.00;52216.13;2079667;28;30338;-73
2023/09/13 04:14:53;;;;;;;;;;;;;;;-146.25;100.00;52234.38;2088909;28;19983;-73
2023/09/13 04:16:00;;;;;;;;;;;;;;;-146.25;100.00;52252.63;2089320;28;20843;-73
2023/09/13 04:17:01;;;;;;;;;;;;;;;-146.25;100.00;52244.50;2088684;28;19929;-72
2023/09/13 04:18:04;;;;;;;;;;;;;;;-146.25;100.00;52218.16;2089221;28;19925;-72
2023/09/13 04:19:06;;;;;;;;;;;;;;;-146.25;100.00;52266.81;2088358;28;20778;-72
2023/09/13 04:20:09;;;;;;;;;;;;;;;-146.25;100.00;52218.16;2088555;28;19925;-73
2023/09/13 04:21:11;;;;;;;;;;;;;;;-146.25;100.00;52242.50;2088806;28;20881;-72
2023/09/13 04:22:16;;;;;;;;;;;;;;;-146.25;100.00;52250.59;2088664;28;20698;-72
2023/09/13 04:23:19;;;;;;;;;;;;;;;-146.25;100.00;52258.72;2088615;28;19925;-72
2023/09/13 04:24:20;;;;;;;;;;;;;;;-146.25;100.00;52264.78;2080828;28;19929;-73
2023/09/13 04:25:22;;;;;;;;;;;;;;;-146.25;100.00;52206.00;2088625;28;22048;-72
2023/09/13 04:26:24;;;;;;;;;;;;;;;-146.25;100.00;52214.09;2088737;28;20911;-73
2023/09/13 04:27:25;;;;;;;;;;;;;;;-146.25;100.00;52203.97;2080453;28;19976;-72
2023/09/13 04:28:27;;;;;;;;;;;;;;;-146.25;100.00;52232.34;2080503;28;19965;-72
2023/09/13 04:29:29;;;;;;;;;;;;;;;-146.25;100.00;52234.38;2088794;28;19925;-71
2023/09/13 04:30:34;;;;;;;;;;;;;;;-146.25;100.00;52238.44;2088432;28;20439;-71
2023/09/13 04:31:36;;;;;;;;;;;;;;;-146.25;100.00;52216.13;2088230;28;19929;-71
2023/09/13 04:32:38;;;;;;;;;;;;;;;-146.25;100.00;52193.81;2088765;28;20763;-70
2023/09/13 04:33:53;;;;;;;;;;;;;;;-146.25;100.00;52238.44;2088286;28;24796;-70
2023/09/13 04:35:00;;;;;;;;;;;;;;;-146.25;100.00;52242.50;2090941;28;20426;-70
2023/09/13 04:36:01;;;;;;;;;;;;;;;-146.25;100.00;52238.44;2088272;28;22498;-69
2023/09/13 04:37:05;;;;;;;;;;;;;;;-146.25;100.00;52228.28;2088833;28;19929;-69
2023/09/13 04:38:06;;;;;;;;;;;;;;;-146.25;100.00;52248.56;2088308;28;19983;-68
2023/09/13 04:39:08;;;;;;;;;;;;;;;-146.25;100.00;52244.50;2088579;28;19968;-68
2023/09/13 04:40:13;;;;;;;;;;;;;;;-146.25;100.00;52238.44;2088475;28;19928;-69
2023/09/13 04:41:16;;;;;;;;;;;;;;;-146.25;100.00;52262.75;2089037;28;19921;-68
2023/09/13 04:42:18;;;;;;;;;;;;;;;-146.25;100.00;52256.69;2088691;28;19929;-68
2023/09/13 04:43:23;;;;;;;;;;;;;;;-146.25;100.00;52228.28;2080008;28;20973;-68
2023/09/13 04:44:26;;;;;;;;;;;;;;;-146.25;100.00;52238.44;2080856;28;19936;-68
2023/09/13 04:45:27;;;;;;;;;;;;;;;-146.25;100.00;52244.50;2080585;28;20072;-68
2023/09/13 04:46:29;;;;;;;;;;;;;;;-146.25;100.00;52246.53;2080151;28;19922;-68
2023/09/13 04:47:31;;;;;;;;;;;;;;;-146.25;100.00;52222.22;2088302;28;27309;-67
2023/09/13 04:48:34;;;;;;;;;;;;;;;-146.25;100.00;52238.44;2088651;28;19925;-66
2023/09/13 04:49:36;;;;;;;;;;;;;;;-146.25;100.00;52262.75;2088300;28;20022;-67
2023/09/13 04:50:38;;;;;;;;;;;;;;;-146.25;100.00;52201.94;2088840;28;27164;-67
2023/09/13 04:51:39;;;;;;;;;;;;;;;-146.25;100.00;52236.41;2089332;28;19920;-67
2023/09/13 04:52:41;;;;;;;;;;;;;;;-146.25;100.00;52244.50;2088167;28;20043;-67
2023/09/13 04:53:43;;;;;;;;;;;;;;;-146.25;100.00;52283.03;2080346;28;20026;-67
2023/09/13 04:54:44;;;;;;;;;;;;;;;-146.25;100.00;52289.13;2080268;28;20745;-67
2023/09/13 04:55:46;;;;;;;;;;;;;;;-146.25;100.00;52206.00;2079927;28;20067;-67
2023/09/13 04:56:49;;;;;;;;;;;;;;;-146.25;100.00;52240.47;2080322;28;20043;-67
2023/09/13 04:57:51;;;;;;;;;;;;;;;-146.25;100.00;52234.38;2088416;28;19929;-67
2023/09/13 04:58:53;;;;;;;;;;;;;;;-146.25;100.00;52236.41;2089389;28;20872;-66
2023/09/13 04:59:56;;;;;;;;;;;;;;;-146.25;100.00;52203.97;2089015;28;23683;-66
2023/09/13 05:00:58;;;;;;;;;;;;;;;-146.25;100.00;52234.38;2088120;28;32473;-67
2023/09/13 05:02:00;;;;;;;;;;;;;;;-146.25;100.00;52240.47;2080103;28;19917;-66
2023/09/13 05:03:01;;;;;;;;;;;;;;;-146.25;100.00;52230.31;2087942;28;34619;-66
2023/09/13 05:04:03;;;;;;;;;;;;;;;-146.25;100.00;52250.59;2088897;28;33256;-66
2023/09/13 05:05:06;;;;;;;;;;;;;;;-146.25;100.00;52234.38;2088596;28;32346;-67
2023/09/13 05:06:08;;;;;;;;;;;;;;;-146.25;100.00;52234.38;2088588;28;36494;-67
2023/09/13 05:07:10;;;;;;;;;;;;;;;-146.25;100.00;52262.75;2088629;28;29379;-66
2023/09/13 05:08:11;;;;;;;;;;;;;;;-146.25;100.00;52270.88;2088325;28;34278;-67
2023/09/13 05:09:13;;;;;;;;;;;;;;;-146.25;100.00;52238.44;2088886;28;31583;-67
2023/09/13 05:10:14;;;;;;;;;;;;;;;-146.25;100.00;52283.03;2088610;28;34122;-66
2023/09/13 05:11:16;;;;;;;;;;;;;;;-146.25;100.00;52262.75;2089256;28;20671;-66
2023/09/13 05:12:18;;;;;;;;;;;;;;;-146.25;100.00;52240.47;2088725;28;33913;-67
2023/09/13 05:13:19;;;;;;;;;;;;;;;-146.25;100.00;52258.72;2088636;28;35857;-66
2023/09/13 05:14:21;;;;;;;;;;;;;;;-146.25;100.00;52270.88;2089163;28;19925;-66
2023/09/13 05:15:27;;;;;;;;;;;;;;;-146.25;100.00;52266.81;2088830;28;19933;-67
2023/09/13 05:16:29;;;;;;;;;;;;;;;-146.25;100.00;52285.06;2087857;28;36049;-66
2023/09/13 05:17:31;;;;;;;;;;;;;;;-146.25;100.00;52254.66;2088514;28;33385;-66